Benson, AZ (85602)

2:05 AM MST on September 05, 2015 (GMT -0700)
Silverwood | | Change Station
CLOSE
Current Station
Personal Weather Station
Location: Benson, AZ
Elevation: 3655 ft
Nearby Weather Stations

Elev 3655 ft 31.96 °N, 110.29 °W | Updated 1 second ago

Mostly Cloudy
Mostly Cloudy
65.1 °F
Feels Like 65.1 °F
N
0.0
Wind Variable Wind from SSE
Gusts 0.0 mph

Today
High -- | Low -- °F
--% Chance of Precip.
Yesterday
High -- | Low -- °F
Precip. -- in
5:58 AM 6:40 PM
Waning Gibbous, 50% visible
Pressure 29.85 in
Visibility 5.0 miles
Clouds Clear
Dew Point 64 °F
Humidity 96%
Rainfall 0.00 in
Snow Depth Not available.
UV 0 out of 12
Pollen .70 out of 12
Air Quality Not available.
Flu Activity Not available.
METAR KALK 050856Z AUTO 02007KT 5SM BR CLR 18/16 A3009 RMK AO2 SLP106 6//// T01780161 55005 PNO $
Pressure 29.85 in
Visibility 5.0 miles
Clouds Clear
Dew Point 64 °F
Humidity 96%
Rainfall 0.00 in
Snow Depth Not available.
UV 0 out of 12
Pollen .70 out of 12
Air Quality Not available.
Flu Activity Not available.
METAR KALK 050856Z AUTO 02007KT 5SM BR CLR 18/16 A3009 RMK AO2 SLP106 6//// T01780161 55005 PNO $

10-Day Weather Forecast

×

Almanac

Astronomy

Sep. 05, 2015 Rise Set
Actual Time
Civil Twilight
Nautical Twilight
Astronomical Twilight
Moon
Length of Visible Light
Length of Day
Tomorrow will be .
, % of the Moon is Illuminated

Today's Extremes

State Highs State Lows

Community

WunderPhotos

Upload Photos

1,852,440 photos uploaded!

WunderBlogs® & News

Nearby

Air Quality

  Air Quality AQ Index Pollutant
Not available.

Snow Depth

Station Depth Elevation

Earthquake Activity

City Distance Mag. Time & Date
Minimum magnitude displayed is 2.5.

Coastal Water Temperatures

Place Temperature

Stations

Nearby Weather Stations

Station Location Temp. Windchill Dew Point Humidity Wind Precip. Elev Updated Type